Pagrindinis puslapis
METAR-TAF:

METAR-TAF

Oro uostai :

Marianhamina, Suomija

platuma: 60-07N, ilguma: 019-54E, Aukštis: 6 m

Dabartinis oras

Ataskaita buvo paskelbta 32 minutes, ne 17:50 UTC
Vėjas 5 kt iš Pietų
Temperatūra 13°C
Drėgmė 94%
Slėgis 1002 hPa
Matomumas 10 km arba daugiau
nėra debesų žemiau 1500 m ir nėra kamuolinių lietaus debesų

METAR: EFMA 231750Z AUTO 17005KT CAVOK 13/12 Q1002

Laikas: 21:22 (18:22 UTC)

Prognozė

Ataskaita buvo paskelbta 45 minutes, ne 17:37 UTC
Prognozė galioja nuo 23 metu 18 UTC su 24 metu 03 UTC
Vėjas 8 kt iš Pietų
Matomumas 10 km arba daugiau
Mažai debesys ne aukštis 500 ft
Laikinai
nuo 23 metu 18 UTC su 24 metu 03 UTC
Matomumas: 1500 m
Su prošvaistėmis ne aukštis 300 ft
rūkana
Tikimybė 30%
nuo 23 metu 18 UTC su 24 metu 03 UTC
Matomumas: 0700 m
rūkas

TAF: EFMA 231737Z 2318/2403 18008KT 9999 FEW005 TEMPO 2318/2403 1500 BR BKN003 PROB30 2318/2403 0700 FG

Orai ataskaitas ir orų prognozės (METAR, TAF).

turimą stotys yra geltonos ir raudonos taškus žemėlapyje.

Perkelti pele per norėdami pamatyti stoties vardą.

Tada spustelėkite, norėdami matyti oro stebėjimo ir prognozės.

Norėdami pakeisti žemėlapį: spustelėkite ant žalios mygtukų su juodo kryžiaus žemyn,; žalią mygtuką su brūkšneliu, jei norite nutolinti; arba žalių rodyklių gretimoms žemėlapius.


METAR-TAF: